Time;durP1;ratioP1;P1;durP2;ratioP2;P2;SDS_P1;SDS_P2;PMS_P1;PMS_P2;Temp;Humidity;BMP_temperature;BMP_pressure;BME280_temperature;BME280_humidity;BME280_pressure;Samples;Min_cycle;Max_cycle;Signal;HPM_P1;HPM_P2
2022/05/07 00:00:11;;;;;;;16.35;4.63;;;;;;;;;;5020846;28;20263;-78
2022/05/07 00:02:36;;;;;;;5.97;4.13;;;;;;;;;;5019699;28;20025;-78
2022/05/07 00:05:02;;;;;;;6.97;4.10;;;;;;;;;;5019676;28;20093;-79
2022/05/07 00:07:27;;;;;;;8.07;4.05;;;;;;;;;;5020669;28;20083;-79
2022/05/07 00:09:52;;;;;;;7.20;4.10;;;;;;;;;;5020388;28;20042;-79
2022/05/07 00:12:17;;;;;;;6.37;4.27;;;;;;;;;;5019566;28;20355;-77
2022/05/07 00:14:43;;;;;;;10.23;4.20;;;;;;;;;;5019192;28;20322;-79
2022/05/07 00:19:52;;;;;;;8.25;4.07;;;;;;;;;;5018726;28;20033;-79
2022/05/07 00:22:18;;;;;;;6.13;3.78;;;;;;;;;;5018005;28;20029;-78
2022/05/07 00:24:43;;;;;;;7.43;4.22;;;;;;;;;;5018944;28;20029;-78
2022/05/07 00:27:09;;;;;;;7.90;4.30;;;;;;;;;;5017367;28;20040;-78
2022/05/07 00:29:34;;;;;;;8.30;4.05;;;;;;;;;;5019498;28;20407;-78
2022/05/07 00:31:59;;;;;;;10.77;4.10;;;;;;;;;;5022382;28;20033;-78
2022/05/07 00:34:25;;;;;;;7.10;4.00;;;;;;;;;;5022621;28;20378;-78
2022/05/07 00:36:50;;;;;;;8.50;4.00;;;;;;;;;;5022524;28;20273;-78
2022/05/07 00:39:16;;;;;;;5.90;3.93;;;;;;;;;;5022254;28;20112;-79
2022/05/07 00:41:41;;;;;;;7.43;4.27;;;;;;;;;;5018170;28;20314;-77
2022/05/07 00:44:06;;;;;;;5.32;3.63;;;;;;;;;;5025482;28;20256;-78
2022/05/07 00:46:32;;;;;;;5.15;3.75;;;;;;;;;;5022241;28;20061;-78
2022/05/07 00:48:57;;;;;;;5.05;3.78;;;;;;;;;;5021140;28;20483;-78
2022/05/07 00:51:35;;;;;;;6.78;3.92;;;;;;;;;;5021224;28;20057;-78
2022/05/07 00:54:03;;;;;;;5.93;4.22;;;;;;;;;;5019454;28;20045;-78
2022/05/07 00:56:29;;;;;;;9.88;4.30;;;;;;;;;;5019739;28;20498;-78
2022/05/07 00:58:54;;;;;;;5.57;3.63;;;;;;;;;;5022076;28;20017;-78
2022/05/07 01:01:20;;;;;;;11.35;4.18;;;;;;;;;;5020989;28;20394;-77
2022/05/07 01:03:46;;;;;;;11.95;3.80;;;;;;;;;;5019714;28;20029;-78
2022/05/07 01:06:11;;;;;;;4.95;3.90;;;;;;;;;;5021278;28;20030;-78
2022/05/07 01:08:37;;;;;;;6.47;3.95;;;;;;;;;;5021091;28;20080;-78
2022/05/07 01:11:03;;;;;;;6.47;3.83;;;;;;;;;;5020961;28;20064;-77
2022/05/07 01:13:28;;;;;;;5.35;4.03;;;;;;;;;;5020648;28;20057;-77
2022/05/07 01:15:56;;;;;;;4.80;3.88;;;;;;;;;;5021670;28;20061;-78
2022/05/07 01:18:22;;;;;;;5.57;3.78;;;;;;;;;;5022120;28;20022;-79
2022/05/07 01:20:47;;;;;;;5.63;3.83;;;;;;;;;;5023583;28;20053;-78
2022/05/07 01:23:12;;;;;;;6.30;3.93;;;;;;;;;;5023633;28;20480;-79
2022/05/07 01:25:38;;;;;;;5.97;3.75;;;;;;;;;;5022184;28;20259;-79
2022/05/07 01:28:04;;;;;;;6.47;3.90;;;;;;;;;;5022044;28;20605;-78
2022/05/07 01:30:29;;;;;;;8.70;4.60;;;;;;;;;;5022007;28;20018;-78
2022/05/07 01:32:55;;;;;;;6.50;3.92;;;;;;;;;;5021992;28;20038;-79
2022/05/07 01:35:20;;;;;;;5.07;3.95;;;;;;;;;;5021598;28;20044;-79
2022/05/07 01:37:45;;;;;;;5.53;3.90;;;;;;;;;;5019474;28;20025;-78
2022/05/07 01:40:14;;;;;;;9.52;4.40;;;;;;;;;;5021955;28;20110;-78
2022/05/07 01:42:41;;;;;;;8.15;4.03;;;;;;;;;;5022396;28;20022;-77
2022/05/07 01:45:07;;;;;;;7.72;4.15;;;;;;;;;;5020389;28;20109;-78
2022/05/07 01:50:23;;;;;;;7.40;4.15;;;;;;;;;;5020032;28;20113;-78
2022/05/07 01:52:48;;;;;;;6.28;4.30;;;;;;;;;;5019500;28;20045;-77
2022/05/07 01:55:13;;;;;;;7.53;4.40;;;;;;;;;;5021989;28;20021;-77
2022/05/07 01:57:38;;;;;;;9.67;4.20;;;;;;;;;;5021048;28;20259;-77
2022/05/07 02:00:04;;;;;;;7.73;4.30;;;;;;;;;;5019098;28;20247;-77
2022/05/07 02:02:30;;;;;;;7.32;4.45;;;;;;;;;;5019629;28;20243;-79
2022/05/07 02:04:55;;;;;;;7.90;4.68;;;;;;;;;;5019626;28;20394;-78
2022/05/07 02:07:20;;;;;;;8.85;4.32;;;;;;;;;;5019341;28;20018;-77
2022/05/07 02:09:45;;;;;;;6.23;4.10;;;;;;;;;;5017657;28;20090;-78
2022/05/07 02:12:11;;;;;;;6.93;4.17;;;;;;;;;;5019486;28;20733;-79
2022/05/07 02:14:36;;;;;;;10.07;4.32;;;;;;;;;;5019117;28;20760;-79
2022/05/07 02:17:01;;;;;;;6.20;4.38;;;;;;;;;;5018977;28;20468;-78
2022/05/07 02:19:26;;;;;;;9.70;4.63;;;;;;;;;;5018586;28;20089;-78
2022/05/07 02:21:52;;;;;;;5.97;4.40;;;;;;;;;;5018443;28;20445;-78
2022/05/07 02:24:17;;;;;;;6.35;4.60;;;;;;;;;;5018041;28;20700;-79
2022/05/07 02:26:42;;;;;;;6.28;4.80;;;;;;;;;;5018233;28;20037;-78
2022/05/07 02:29:09;;;;;;;4.97;4.18;;;;;;;;;;5018701;28;20022;-78
2022/05/07 02:31:35;;;;;;;6.55;4.70;;;;;;;;;;5016028;28;20021;-78
2022/05/07 02:34:00;;;;;;;6.15;4.72;;;;;;;;;;5018070;28;20022;-78
2022/05/07 02:36:25;;;;;;;5.82;4.47;;;;;;;;;;5017506;28;20029;-79
2022/05/07 02:38:50;;;;;;;5.15;4.32;;;;;;;;;;5016041;28;20033;-78
2022/05/07 02:43:59;;;;;;;7.90;4.03;;;;;;;;;;5018230;28;20262;-78
2022/05/07 02:46:25;;;;;;;6.10;4.35;;;;;;;;;;5016554;28;20034;-79
2022/05/07 02:48:50;;;;;;;9.55;4.65;;;;;;;;;;5017234;28;20029;-79
2022/05/07 02:51:16;;;;;;;9.82;4.40;;;;;;;;;;5016237;28;20034;-78
2022/05/07 02:53:41;;;;;;;6.10;4.30;;;;;;;;;;5015062;28;20026;-79
2022/05/07 02:56:07;;;;;;;7.55;4.53;;;;;;;;;;5019041;28;20391;-79
2022/05/07 02:58:32;;;;;;;7.40;4.32;;;;;;;;;;5018103;28;20037;-78
2022/05/07 03:00:58;;;;;;;6.82;4.32;;;;;;;;;;5020674;28;20032;-79
2022/05/07 03:03:23;;;;;;;8.80;4.63;;;;;;;;;;5021020;28;20021;-79
2022/05/07 03:05:49;;;;;;;10.63;5.00;;;;;;;;;;5020392;28;20369;-78
2022/05/07 03:08:14;;;;;;;10.50;4.68;;;;;;;;;;5018355;28;20022;-79
2022/05/07 03:10:39;;;;;;;10.37;4.67;;;;;;;;;;5019553;28;20438;-79
2022/05/07 03:13:04;;;;;;;6.55;4.90;;;;;;;;;;5019081;28;20672;-78
2022/05/07 03:15:30;;;;;;;5.30;4.25;;;;;;;;;;5019503;28;20026;-79
2022/05/07 03:17:55;;;;;;;6.35;4.78;;;;;;;;;;5017228;28;20060;-79
2022/05/07 03:20:20;;;;;;;8.67;4.60;;;;;;;;;;5017552;28;20032;-79
2022/05/07 03:22:45;;;;;;;6.07;4.57;;;;;;;;;;5018720;28;20263;-80
2022/05/07 03:25:12;;;;;;;7.30;4.93;;;;;;;;;;5018395;28;20030;-79
2022/05/07 03:27:37;;;;;;;9.38;4.75;;;;;;;;;;5019466;28;20022;-79
2022/05/07 03:30:04;;;;;;;6.63;4.78;;;;;;;;;;5018826;28;20048;-79
2022/05/07 03:32:29;;;;;;;10.60;5.15;;;;;;;;;;5019905;28;20029;-79
2022/05/07 03:34:57;;;;;;;6.68;5.07;;;;;;;;;;5019158;28;20056;-79
2022/05/07 03:37:22;;;;;;;6.95;4.93;;;;;;;;;;5018448;28;20084;-78
2022/05/07 03:39:47;;;;;;;8.15;5.15;;;;;;;;;;5019455;28;20022;-78
2022/05/07 03:42:13;;;;;;;12.48;5.53;;;;;;;;;;5019723;28;20052;-79
2022/05/07 03:44:38;;;;;;;7.27;5.20;;;;;;;;;;5018014;28;20034;-80
2022/05/07 03:47:03;;;;;;;9.07;5.37;;;;;;;;;;5017352;28;20255;-79
2022/05/07 03:49:28;;;;;;;8.32;5.25;;;;;;;;;;5021087;28;20255;-78
2022/05/07 03:54:38;;;;;;;7.57;5.00;;;;;;;;;;5019948;28;20100;-79
2022/05/07 03:57:03;;;;;;;7.53;5.00;;;;;;;;;;5018214;28;20475;-77
2022/05/07 03:59:28;;;;;;;7.40;5.05;;;;;;;;;;5017408;28;20088;-78
2022/05/07 04:01:54;;;;;;;8.52;5.38;;;;;;;;;;5016230;28;20052;-79
2022/05/07 04:04:19;;;;;;;8.60;5.13;;;;;;;;;;5020020;28;20038;-79
2022/05/07 04:06:44;;;;;;;7.63;5.07;;;;;;;;;;5021494;28;20278;-79
2022/05/07 04:09:09;;;;;;;7.05;5.13;;;;;;;;;;5022372;28;20256;-79
2022/05/07 04:11:35;;;;;;;7.60;4.90;;;;;;;;;;5020457;28;20037;-78
2022/05/07 04:14:00;;;;;;;6.13;5.18;;;;;;;;;;5018862;28;20280;-79
2022/05/07 04:16:25;;;;;;;12.30;5.27;;;;;;;;;;5016384;28;20025;-78
2022/05/07 04:18:50;;;;;;;8.80;5.33;;;;;;;;;;5017018;28;20656;-78
2022/05/07 04:21:15;;;;;;;7.90;5.27;;;;;;;;;;5016618;28;20605;-79
2022/05/07 04:23:41;;;;;;;6.57;4.77;;;;;;;;;;5017453;28;20641;-79
2022/05/07 04:26:06;;;;;;;8.98;5.50;;;;;;;;;;5017255;28;20616;-78
2022/05/07 04:28:31;;;;;;;7.50;5.25;;;;;;;;;;5018296;28;20018;-78
2022/05/07 04:30:56;;;;;;;7.93;4.87;;;;;;;;;;5016511;28;20041;-78
2022/05/07 04:33:23;;;;;;;7.60;5.43;;;;;;;;;;5017497;28;20279;-78
2022/05/07 04:35:49;;;;;;;8.32;5.35;;;;;;;;;;5015552;28;20018;-78
2022/05/07 04:38:14;;;;;;;12.85;4.93;;;;;;;;;;5014557;28;20483;-78
2022/05/07 04:40:39;;;;;;;9.20;5.30;;;;;;;;;;5014440;28;20036;-79
2022/05/07 04:43:05;;;;;;;6.00;4.60;;;;;;;;;;5016042;28;20026;-79
2022/05/07 04:45:30;;;;;;;7.15;4.88;;;;;;;;;;5019684;28;20255;-78
2022/05/07 04:47:55;;;;;;;7.15;5.10;;;;;;;;;;5016829;28;20084;-79
2022/05/07 04:50:21;;;;;;;8.75;5.32;;;;;;;;;;5016345;28;20025;-78
2022/05/07 04:52:46;;;;;;;14.75;5.47;;;;;;;;;;5018532;28;20472;-78
2022/05/07 04:55:11;;;;;;;6.43;4.90;;;;;;;;;;5016084;28;20462;-79
2022/05/07 04:57:36;;;;;;;7.20;4.77;;;;;;;;;;5016424;28;20017;-78
2022/05/07 05:00:03;;;;;;;7.57;5.05;;;;;;;;;;5018968;28;20255;-79
2022/05/07 05:02:28;;;;;;;7.95;4.75;;;;;;;;;;5016936;28;20026;-78
2022/05/07 05:04:54;;;;;;;6.60;4.60;;;;;;;;;;5017828;28;20494;-78
2022/05/07 05:07:19;;;;;;;10.85;4.82;;;;;;;;;;5017432;28;20255;-78
2022/05/07 05:09:44;;;;;;;8.00;4.57;;;;;;;;;;5015387;28;20026;-77
2022/05/07 05:12:10;;;;;;;8.60;4.73;;;;;;;;;;5018231;28;20259;-78
2022/05/07 05:17:19;;;;;;;5.47;4.00;;;;;;;;;;5023347;28;20037;-78
2022/05/07 05:19:44;;;;;;;5.30;3.97;;;;;;;;;;5021068;28;20041;-78
2022/05/07 05:22:09;;;;;;;13.47;4.47;;;;;;;;;;5021389;28;20270;-79
2022/05/07 05:24:35;;;;;;;5.68;3.95;;;;;;;;;;5022087;28;20255;-79
2022/05/07 05:27:00;;;;;;;6.18;3.90;;;;;;;;;;5022678;28;20034;-79
2022/05/07 05:29:26;;;;;;;10.43;3.90;;;;;;;;;;5021777;28;20021;-80
2022/05/07 05:31:51;;;;;;;7.18;3.88;;;;;;;;;;5024161;28;20022;-79
2022/05/07 05:34:17;;;;;;;8.00;3.78;;;;;;;;;;5023206;28;20341;-78
2022/05/07 05:36:42;;;;;;;5.70;3.70;;;;;;;;;;5020964;28;20022;-80
2022/05/07 05:39:07;;;;;;;8.00;4.03;;;;;;;;;;5025702;28;20290;-78
2022/05/07 05:41:35;;;;;;;7.28;4.40;;;;;;;;;;5019342;28;20263;-78
2022/05/07 05:44:00;;;;;;;8.55;4.28;;;;;;;;;;5021547;28;20058;-78
2022/05/07 05:46:27;;;;;;;6.37;4.27;;;;;;;;;;5020474;28;20032;-79
2022/05/07 05:48:53;;;;;;;7.80;4.40;;;;;;;;;;5019550;28;20621;-78
2022/05/07 05:51:18;;;;;;;7.00;4.68;;;;;;;;;;5020857;28;20030;-78
2022/05/07 05:53:43;;;;;;;6.15;4.25;;;;;;;;;;5018861;28;20438;-77
2022/05/07 05:56:08;;;;;;;7.00;3.93;;;;;;;;;;5017377;28;20026;-78
2022/05/07 05:58:33;;;;;;;5.43;4.03;;;;;;;;;;5019882;28;20259;-78
2022/05/07 06:01:03;;;;;;;6.03;4.38;;;;;;;;;;5018592;28;20263;-78
2022/05/07 06:03:29;;;;;;;10.00;4.50;;;;;;;;;;5020679;28;20029;-79
2022/05/07 06:05:54;;;;;;;7.68;4.20;;;;;;;;;;5020632;28;20029;-78
2022/05/07 06:08:20;;;;;;;6.07;3.80;;;;;;;;;;5020809;28;20395;-79
2022/05/07 06:10:45;;;;;;;5.85;4.18;;;;;;;;;;5019193;28;20617;-79
2022/05/07 06:13:10;;;;;;;5.25;3.63;;;;;;;;;;5022034;28;20033;-78
2022/05/07 06:15:38;;;;;;;5.95;3.75;;;;;;;;;;5021849;28;20033;-79
2022/05/07 06:18:03;;;;;;;6.28;4.10;;;;;;;;;;5020545;28;20033;-79
2022/05/07 06:20:28;;;;;;;5.57;3.80;;;;;;;;;;5021946;28;20030;-79
2022/05/07 06:23:00;;;;;;;9.77;4.10;;;;;;;;;;5020990;28;20026;-79
2022/05/07 06:28:09;;;;;;;4.78;3.83;;;;;;;;;;5019698;28;20053;-78
2022/05/07 06:30:35;;;;;;;6.28;3.67;;;;;;;;;;5019172;28;20534;-79
2022/05/07 06:33:01;;;;;;;5.43;3.63;;;;;;;;;;5019328;28;20395;-78
2022/05/07 06:35:27;;;;;;;10.70;4.03;;;;;;;;;;5019348;28;20080;-78
2022/05/07 06:37:52;;;;;;;8.85;4.00;;;;;;;;;;5017967;28;20022;-79
2022/05/07 06:40:18;;;;;;;6.10;3.75;;;;;;;;;;5019446;28;20449;-79
2022/05/07 06:42:44;;;;;;;4.97;3.53;;;;;;;;;;5020046;28;20073;-78
2022/05/07 06:45:11;;;;;;;8.07;3.80;;;;;;;;;;5018791;28;20026;-79
2022/05/07 06:47:36;;;;;;;5.90;3.22;;;;;;;;;;5019307;28;20033;-79
2022/05/07 06:50:02;;;;;;;7.32;3.72;;;;;;;;;;5018966;28;20065;-79
2022/05/07 06:52:28;;;;;;;6.72;3.13;;;;;;;;;;5019479;28;20030;-80
2022/05/07 06:54:53;;;;;;;4.90;3.15;;;;;;;;;;5019394;28;20083;-79
2022/05/07 06:57:19;;;;;;;3.90;3.17;;;;;;;;;;5018014;28;20479;-80
2022/05/07 06:59:44;;;;;;;5.78;3.17;;;;;;;;;;5018591;28;20831;-78
2022/05/07 07:02:09;;;;;;;5.80;3.30;;;;;;;;;;5018667;28;20483;-79
2022/05/07 07:04:34;;;;;;;6.87;3.30;;;;;;;;;;5018266;28;20033;-79
2022/05/07 07:07:00;;;;;;;6.73;2.90;;;;;;;;;;5018434;28;20260;-78
2022/05/07 07:09:25;;;;;;;4.67;2.60;;;;;;;;;;5017978;28;20282;-79
2022/05/07 07:11:50;;;;;;;4.30;2.37;;;;;;;;;;5019728;28;20259;-79
2022/05/07 07:14:15;;;;;;;3.53;2.80;;;;;;;;;;5018414;28;20315;-79
2022/05/07 07:16:40;;;;;;;6.95;3.20;;;;;;;;;;5019025;28;20034;-78
2022/05/07 07:19:06;;;;;;;4.27;2.70;;;;;;;;;;5018490;28;20033;-79
2022/05/07 07:21:31;;;;;;;4.75;2.88;;;;;;;;;;5018086;28;20268;-78
2022/05/07 07:23:57;;;;;;;10.60;3.17;;;;;;;;;;5018253;28;20096;-80
2022/05/07 07:26:23;;;;;;;7.60;2.92;;;;;;;;;;5018126;28;20026;-80
2022/05/07 07:28:48;;;;;;;4.07;2.97;;;;;;;;;;5017230;28;20032;-79
2022/05/07 07:31:14;;;;;;;3.75;2.80;;;;;;;;;;5019471;28;20026;-78
2022/05/07 07:33:41;;;;;;;5.72;2.90;;;;;;;;;;5018793;28;20026;-79
2022/05/07 07:36:07;;;;;;;4.70;2.85;;;;;;;;;;5018228;28;20410;-79
2022/05/07 07:38:32;;;;;;;4.65;2.60;;;;;;;;;;5019407;28;20105;-80
2022/05/07 07:40:57;;;;;;;6.07;3.28;;;;;;;;;;5019423;28;20475;-79
2022/05/07 07:43:23;;;;;;;6.80;3.00;;;;;;;;;;5018974;28;20021;-79
2022/05/07 07:48:33;;;;;;;3.72;2.55;;;;;;;;;;5020168;28;20406;-78
2022/05/07 07:50:58;;;;;;;5.03;2.80;;;;;;;;;;5020191;28;20034;-81
2022/05/07 07:53:24;;;;;;;4.63;2.78;;;;;;;;;;5019947;28;20030;-80
2022/05/07 07:55:50;;;;;;;4.88;2.75;;;;;;;;;;5020361;28;20041;-82
2022/05/07 07:58:16;;;;;;;5.60;2.47;;;;;;;;;;5019977;28;20030;-80
2022/05/07 08:00:44;;;;;;;3.53;2.67;;;;;;;;;;5020335;28;20102;-80
2022/05/07 08:03:17;;;;;;;4.10;2.63;;;;;;;;;;5019558;28;20018;-81
2022/05/07 08:05:48;;;;;;;5.32;2.60;;;;;;;;;;5019316;28;20096;-80
2022/05/07 08:13:44;;;;;;;3.17;2.00;;;;;;;;;;5018587;28;20037;-79
2022/05/07 08:16:10;;;;;;;4.65;2.17;;;;;;;;;;5018974;28;20038;-81
2022/05/07 08:18:37;;;;;;;3.25;2.00;;;;;;;;;;5019446;28;20041;-79
2022/05/07 08:21:06;;;;;;;4.88;2.10;;;;;;;;;;5018243;28;20030;-80
2022/05/07 08:23:31;;;;;;;2.88;2.03;;;;;;;;;;5019350;28;20022;-80
2022/05/07 08:25:56;;;;;;;3.38;1.88;;;;;;;;;;5020671;28;20394;-80
2022/05/07 08:28:24;;;;;;;9.32;2.20;;;;;;;;;;5020204;28;20418;-79
2022/05/07 08:30:49;;;;;;;3.72;1.70;;;;;;;;;;5017367;28;20029;-81
2022/05/07 08:33:17;;;;;;;2.75;1.50;;;;;;;;;;5019388;28;20029;-80
2022/05/07 08:35:43;;;;;;;2.75;1.50;;;;;;;;;;5021293;28;20113;-80
2022/05/07 08:38:08;;;;;;;8.85;1.50;;;;;;;;;;5022585;28;20034;-79
2022/05/07 08:40:33;;;;;;;4.83;1.63;;;;;;;;;;5020253;28;20029;-79
2022/05/07 08:42:59;;;;;;;4.57;1.80;;;;;;;;;;5019609;28;20263;-80
2022/05/07 08:45:24;;;;;;;4.00;1.85;;;;;;;;;;5019142;28;20109;-80
2022/05/07 08:47:53;;;;;;;3.33;1.95;;;;;;;;;;5019268;28;20057;-79
2022/05/07 08:50:19;;;;;;;2.70;1.80;;;;;;;;;;5020761;28;20030;-78
2022/05/07 08:52:44;;;;;;;2.88;1.67;;;;;;;;;;5018134;28;20133;-74
2022/05/07 08:55:14;;;;;;;2.17;1.50;;;;;;;;;;5016852;28;20104;-76
2022/05/07 08:57:40;;;;;;;1.77;1.35;;;;;;;;;;5015657;28;20025;-73
2022/05/07 09:00:09;;;;;;;2.80;1.35;;;;;;;;;;5016586;28;20120;-74
2022/05/07 09:02:43;;;;;;;1.85;1.48;;;;;;;;;;5015797;28;20032;-73
2022/05/07 09:05:10;;;;;;;2.85;1.40;;;;;;;;;;5016957;28;20105;-73
2022/05/07 09:07:36;;;;;;;2.17;1.52;;;;;;;;;;5015844;28;20030;-74
2022/05/07 09:10:01;;;;;;;4.70;1.63;;;;;;;;;;5016529;28;20395;-73
2022/05/07 09:12:28;;;;;;;2.13;1.40;;;;;;;;;;5016416;28;20032;-75
2022/05/07 09:15:01;;;;;;;3.28;1.40;;;;;;;;;;5016387;28;20104;-74
2022/05/07 09:17:27;;;;;;;3.20;1.40;;;;;;;;;;5016917;28;20395;-73
2022/05/07 09:19:52;;;;;;;3.55;1.30;;;;;;;;;;5022792;28;20026;-81
2022/05/07 09:22:17;;;;;;;3.28;1.80;;;;;;;;;;5024180;28;20030;-81
2022/05/07 09:24:53;;;;;;;2.60;1.57;;;;;;;;;;5022950;28;20026;-80
2022/05/07 09:27:18;;;;;;;15.35;8.05;;;;;;;;;;5021089;28;20255;-81
2022/05/07 09:29:43;;;;;;;4.93;1.67;;;;;;;;;;5022736;28;20025;-80
2022/05/07 09:32:16;;;;;;;4.20;1.60;;;;;;;;;;5020760;28;20263;-81
2022/05/07 09:37:38;;;;;;;2.05;1.35;;;;;;;;;;5021535;28;20036;-81
2022/05/07 09:40:05;;;;;;;6.10;1.58;;;;;;;;;;5022719;28;20037;-80
2022/05/07 09:42:32;;;;;;;8.57;1.30;;;;;;;;;;5024763;28;20034;-80
2022/05/07 09:44:59;;;;;;;3.78;1.50;;;;;;;;;;5023113;28;20041;-81
2022/05/07 09:47:26;;;;;;;1.58;1.42;;;;;;;;;;5024910;28;20081;-82
2022/05/07 09:57:30;;;;;;;3.83;1.40;;;;;;;;;;5025094;28;20040;-80
2022/05/07 09:58:09;;;;;;;1.77;1.33;;;;;;;;;;5021321;28;20493;-81
2022/05/07 10:00:37;;;;;;;4.50;1.50;;;;;;;;;;5021521;28;20029;-81
2022/05/07 10:03:26;;;;;;;2.83;1.50;;;;;;;;;;5021326;28;20275;-80
2022/05/07 10:06:10;;;;;;;3.92;1.65;;;;;;;;;;5016453;28;20030;-75
2022/05/07 10:08:48;;;;;;;4.70;1.45;;;;;;;;;;5015751;28;20040;-76
2022/05/07 10:11:16;;;;;;;2.50;1.58;;;;;;;;;;5015815;28;20096;-75
2022/05/07 10:13:51;;;;;;;3.05;1.40;;;;;;;;;;5015279;28;20030;-76
2022/05/07 10:16:21;;;;;;;3.72;1.55;;;;;;;;;;5015770;28;20021;-76
2022/05/07 10:18:46;;;;;;;2.97;1.40;;;;;;;;;;5015469;28;20028;-74
2022/05/07 10:21:18;;;;;;;3.10;1.63;;;;;;;;;;5015479;28;20108;-75
2022/05/07 10:23:54;;;;;;;3.92;1.50;;;;;;;;;;5013939;28;20259;-75
2022/05/07 10:26:22;;;;;;;4.25;1.52;;;;;;;;;;5018190;28;20032;-80
2022/05/07 10:28:48;;;;;;;2.28;1.40;;;;;;;;;;5020813;28;20044;-79
2022/05/07 10:31:21;;;;;;;3.95;1.52;;;;;;;;;;5020633;28;20479;-79
2022/05/07 10:33:47;;;;;;;2.08;1.35;;;;;;;;;;5021385;28;20061;-79
2022/05/07 10:36:13;;;;;;;3.92;1.42;;;;;;;;;;5020595;28;20032;-77
2022/05/07 10:38:39;;;;;;;5.13;1.65;;;;;;;;;;5020352;28;20025;-80
2022/05/07 10:41:19;;;;;;;4.70;1.30;;;;;;;;;;5018846;28;20079;-81
2022/05/07 10:44:00;;;;;;;3.92;1.60;;;;;;;;;;5020942;28;20108;-80
2022/05/07 10:46:36;;;;;;;3.92;1.30;;;;;;;;;;5019400;28;20022;-80
2022/05/07 10:49:01;;;;;;;1.90;1.27;;;;;;;;;;5019479;28;20036;-79
2022/05/07 10:51:29;;;;;;;5.03;1.67;;;;;;;;;;5020544;28;20089;-80
2022/05/07 10:54:00;;;;;;;1.52;1.30;;;;;;;;;;5027949;28;20034;-77
2022/05/07 10:56:26;;;;;;;3.50;1.40;;;;;;;;;;5031020;28;20089;-78
2022/05/07 10:58:57;;;;;;;2.28;1.40;;;;;;;;;;5030162;28;20034;-78
2022/05/07 11:01:23;;;;;;;2.40;1.33;;;;;;;;;;5028258;28;20022;-78
2022/05/07 11:03:59;;;;;;;3.38;1.50;;;;;;;;;;5029619;28;20379;-78
2022/05/07 11:06:25;;;;;;;2.55;1.60;;;;;;;;;;5028268;28;20058;-78
2022/05/07 11:08:55;;;;;;;3.53;1.33;;;;;;;;;;5030370;28;20033;-79
2022/05/07 11:11:21;;;;;;;4.38;1.45;;;;;;;;;;5030435;28;20079;-79
2022/05/07 11:13:49;;;;;;;2.58;1.45;;;;;;;;;;5029416;28;20033;-79
2022/05/07 11:16:17;;;;;;;5.90;1.70;;;;;;;;;;5030253;28;20089;-78
2022/05/07 11:18:53;;;;;;;6.05;1.50;;;;;;;;;;5029682;28;20025;-78
2022/05/07 11:21:24;;;;;;;5.03;1.50;;;;;;;;;;5025770;28;20064;-80
2022/05/07 11:23:56;;;;;;;2.78;1.70;;;;;;;;;;5017567;28;20060;-79
2022/05/07 11:26:22;;;;;;;2.10;1.50;;;;;;;;;;5017461;28;20036;-80
2022/05/07 11:28:49;;;;;;;4.47;1.52;;;;;;;;;;5016200;28;20030;-78
2022/05/07 11:31:29;;;;;;;3.15;1.20;;;;;;;;;;5015799;28;20041;-80
2022/05/07 11:34:11;;;;;;;4.28;1.65;;;;;;;;;;5017225;28;20033;-81
2022/05/07 11:36:37;;;;;;;2.65;1.40;;;;;;;;;;5017279;28;20036;-79
2022/05/07 11:39:04;;;;;;;2.67;1.42;;;;;;;;;;5016496;28;20026;-80
2022/05/07 11:41:30;;;;;;;1.45;1.20;;;;;;;;;;5016981;28;20479;-80
2022/05/07 11:47:06;;;;;;;3.65;1.30;;;;;;;;;;5017373;28;20622;-79
2022/05/07 11:49:34;;;;;;;5.65;1.63;;;;;;;;;;5012492;28;20123;-80
2022/05/07 11:52:10;;;;;;;3.67;1.80;;;;;;;;;;5016950;28;20053;-78
2022/05/07 11:54:51;;;;;;;4.22;1.65;;;;;;;;;;5017175;28;20196;-78
2022/05/07 11:57:27;;;;;;;3.30;1.55;;;;;;;;;;5016838;28;20036;-78
2022/05/07 11:59:53;;;;;;;7.00;1.60;;;;;;;;;;5015372;28;20525;-79
2022/05/07 12:02:18;;;;;;;2.73;1.50;;;;;;;;;;5016855;28;20049;-80
2022/05/07 12:04:43;;;;;;;1.83;1.40;;;;;;;;;;5016561;28;20313;-81
2022/05/07 12:07:10;;;;;;;7.30;1.60;;;;;;;;;;5016622;28;20264;-81
2022/05/07 12:09:35;;;;;;;4.57;1.33;;;;;;;;;;5015902;28;20262;-81
2022/05/07 12:12:00;;;;;;;3.60;1.55;;;;;;;;;;5016268;28;20025;-80
2022/05/07 12:14:26;;;;;;;4.20;1.50;;;;;;;;;;5017146;28;20058;-80
2022/05/07 12:19:35;;;;;;;2.47;1.40;;;;;;;;;;5016465;28;20061;-81
2022/05/07 12:30:12;;;;;;;3.65;1.20;;;;;;;;;;5021617;28;20025;-80
2022/05/07 12:32:38;;;;;;;6.30;1.33;;;;;;;;;;5020451;28;20026;-78
2022/05/07 12:35:04;;;;;;;2.30;1.30;;;;;;;;;;5020583;28;20029;-81
2022/05/07 12:37:29;;;;;;;2.17;1.13;;;;;;;;;;5020690;28;20034;-80
2022/05/07 12:39:54;;;;;;;2.93;1.43;;;;;;;;;;5020306;28;20444;-80
2022/05/07 12:42:20;;;;;;;4.40;1.23;;;;;;;;;;5020448;28;20255;-81
2022/05/07 12:44:45;;;;;;;5.25;1.50;;;;;;;;;;5020244;28;20286;-80
2022/05/07 12:47:11;;;;;;;2.58;1.23;;;;;;;;;;5020361;28;20028;-79
2022/05/07 12:49:37;;;;;;;3.25;1.30;;;;;;;;;;5019956;28;20053;-80
2022/05/07 12:52:03;;;;;;;2.47;1.38;;;;;;;;;;5019945;28;20113;-81
2022/05/07 12:54:29;;;;;;;2.30;1.15;;;;;;;;;;5020290;28;20025;-80
2022/05/07 12:56:55;;;;;;;1.98;1.20;;;;;;;;;;5020570;28;20021;-80
2022/05/07 12:59:20;;;;;;;4.70;1.60;;;;;;;;;;5020098;28;20032;-81
2022/05/07 13:01:45;;;;;;;5.57;1.43;;;;;;;;;;5018872;28;20029;-81
2022/05/07 13:04:11;;;;;;;4.40;1.40;;;;;;;;;;5020662;28;20259;-81
2022/05/07 13:06:36;;;;;;;2.22;1.30;;;;;;;;;;5018857;28;20099;-81
2022/05/07 13:09:01;;;;;;;3.47;1.13;;;;;;;;;;5018828;28;20030;-79
2022/05/07 13:11:27;;;;;;;3.53;1.20;;;;;;;;;;5019467;28;20269;-80
2022/05/07 13:13:53;;;;;;;2.20;1.38;;;;;;;;;;5019082;28;20287;-80
2022/05/07 13:16:18;;;;;;;2.60;1.20;;;;;;;;;;5019711;28;20077;-80
2022/05/07 13:18:44;;;;;;;2.45;1.20;;;;;;;;;;5018203;28;20057;-79
2022/05/07 13:21:10;;;;;;;5.05;1.20;;;;;;;;;;5019501;28;20024;-82
2022/05/07 13:23:35;;;;;;;4.20;1.30;;;;;;;;;;5019109;28;20026;-79
2022/05/07 13:26:00;;;;;;;6.63;1.42;;;;;;;;;;5019736;28;20128;-80
2022/05/07 13:28:26;;;;;;;1.83;1.30;;;;;;;;;;5019545;28;20030;-79
2022/05/07 13:30:56;;;;;;;5.88;1.40;;;;;;;;;;5019603;28;20307;-80
2022/05/07 13:33:21;;;;;;;4.78;1.58;;;;;;;;;;5019168;28;20025;-80
2022/05/07 13:35:47;;;;;;;1.60;1.10;;;;;;;;;;5018677;28;20497;-78
2022/05/07 13:38:12;;;;;;;1.25;1.10;;;;;;;;;;5018961;28;20460;-81
2022/05/07 13:40:37;;;;;;;2.45;1.33;;;;;;;;;;5017402;28;20049;-80
2022/05/07 13:43:03;;;;;;;2.67;1.30;;;;;;;;;;5019049;28;20026;-79
2022/05/07 13:45:29;;;;;;;3.97;1.53;;;;;;;;;;5017352;28;20452;-79
2022/05/07 13:47:54;;;;;;;1.33;1.17;;;;;;;;;;5017398;28;20266;-79
2022/05/07 13:50:20;;;;;;;3.45;1.30;;;;;;;;;;5017588;28;20026;-79
2022/05/07 13:52:45;;;;;;;2.28;1.30;;;;;;;;;;5019045;28;20467;-79
2022/05/07 13:55:12;;;;;;;2.17;1.27;;;;;;;;;;5018771;28;20025;-79
2022/05/07 13:57:38;;;;;;;1.50;1.25;;;;;;;;;;5018600;28;20776;-79
2022/05/07 14:00:05;;;;;;;4.43;1.65;;;;;;;;;;5018871;28;20085;-80
2022/05/07 14:02:36;;;;;;;2.28;1.27;;;;;;;;;;5019139;28;20105;-79
2022/05/07 14:05:02;;;;;;;4.72;1.27;;;;;;;;;;5018556;28;20018;-79
2022/05/07 14:07:28;;;;;;;2.45;1.33;;;;;;;;;;5017156;28;20056;-79
2022/05/07 14:09:53;;;;;;;2.97;1.38;;;;;;;;;;5018893;28;20050;-79
2022/05/07 14:12:19;;;;;;;2.10;1.50;;;;;;;;;;5018578;28;20025;-78
2022/05/07 14:14:45;;;;;;;1.88;1.30;;;;;;;;;;5017226;28;20030;-79
2022/05/07 14:17:11;;;;;;;1.95;1.20;;;;;;;;;;5018356;28;20034;-80
2022/05/07 14:19:37;;;;;;;1.92;1.58;;;;;;;;;;5017116;28;20033;-79
2022/05/07 14:22:03;;;;;;;2.90;1.58;;;;;;;;;;5018402;28;20022;-80
2022/05/07 14:24:29;;;;;;;2.70;1.50;;;;;;;;;;5018751;28;20368;-80
2022/05/07 14:26:54;;;;;;;8.50;3.40;;;;;;;;;;5017275;28;20026;-81
2022/05/07 14:29:20;;;;;;;1.92;1.42;;;;;;;;;;5018399;28;20033;-80
2022/05/07 14:31:45;;;;;;;4.93;1.50;;;;;;;;;;5018595;28;20407;-80
2022/05/07 14:34:10;;;;;;;6.57;1.47;;;;;;;;;;5018541;28;20641;-79
2022/05/07 14:36:36;;;;;;;3.83;1.40;;;;;;;;;;5018567;28;20602;-80
2022/05/07 14:39:01;;;;;;;3.13;1.60;;;;;;;;;;5017144;28;20717;-80
2022/05/07 14:41:27;;;;;;;1.77;1.23;;;;;;;;;;5018198;28;20104;-80
2022/05/07 14:43:52;;;;;;;2.20;1.20;;;;;;;;;;5016561;28;20014;-81
2022/05/07 14:46:19;;;;;;;2.75;1.30;;;;;;;;;;5018698;28;20119;-80
2022/05/07 14:48:45;;;;;;;3.83;1.40;;;;;;;;;;5017927;28;20036;-79
2022/05/07 14:51:10;;;;;;;2.40;1.30;;;;;;;;;;5017925;28;20432;-79
2022/05/07 14:53:35;;;;;;;3.33;1.23;;;;;;;;;;5018449;28;20030;-79
2022/05/07 14:56:00;;;;;;;2.57;1.43;;;;;;;;;;5017590;28;20351;-79
2022/05/07 14:58:26;;;;;;;3.63;1.37;;;;;;;;;;5017300;28;20271;-80
2022/05/07 15:00:51;;;;;;;5.93;1.50;;;;;;;;;;5018716;28;20274;-80
2022/05/07 15:03:18;;;;;;;2.73;1.30;;;;;;;;;;5016919;28;20479;-79
2022/05/07 15:05:43;;;;;;;3.08;1.20;;;;;;;;;;5018390;28;20270;-80
2022/05/07 15:10:52;;;;;;;;;;;;;;;;;;5017961;28;20033;-80
2022/05/07 15:13:17;;;;;;;3.90;1.40;;;;;;;;;;5018062;28;19913;-79
2022/05/07 15:15:43;;;;;;;1.93;1.30;;;;;;;;;;5018050;28;20274;-79
2022/05/07 15:18:08;;;;;;;3.20;1.30;;;;;;;;;;5017770;28;20267;-79
2022/05/07 15:20:34;;;;;;;2.33;1.30;;;;;;;;;;5016757;28;20259;-79
2022/05/07 15:22:59;;;;;;;4.22;1.70;;;;;;;;;;5016057;28;20026;-80
2022/05/07 15:25:24;;;;;;;3.83;1.50;;;;;;;;;;5016228;28;20018;-80
2022/05/07 15:27:49;;;;;;;5.70;1.43;;;;;;;;;;5016806;28;20033;-79